Time;durP1;ratioP1;P1;durP2;ratioP2;P2;SDS_P1;SDS_P2;PMS_P1;PMS_P2;Temp;Humidity;BMP_temperature;BMP_pressure;BME280_temperature;BME280_humidity;BME280_pressure;Samples;Min_cycle;Max_cycle;Signal;HPM_P1;HPM_P2
2023/12/05 00:00:05;;;;;;;31.33;15.97;;;;;;;3.97;100.00;102355.72;2090050;28;20685;-66
2023/12/05 00:01:06;;;;;;;30.15;16.10;;;;;;;4.04;100.00;102356.72;2090153;28;20267;-66
2023/12/05 00:02:06;;;;;;;34.80;15.93;;;;;;;4.09;100.00;102355.69;2090757;28;20172;-66
2023/12/05 00:03:07;;;;;;;30.73;16.07;;;;;;;4.09;100.00;102361.16;2097245;28;20208;-66
2023/12/05 00:04:07;;;;;;;27.77;14.40;;;;;;;4.08;100.00;102357.66;2089858;28;20558;-66
2023/12/05 00:05:09;;;;;;;34.57;15.83;;;;;;;4.07;100.00;102355.25;2089858;28;20195;-66
2023/12/05 00:06:10;;;;;;;33.75;15.75;;;;;;;4.07;100.00;102360.72;2095369;28;20270;-66
2023/12/05 00:07:10;;;;;;;35.60;16.27;;;;;;;4.10;100.00;102360.03;2097194;28;20291;-66
2023/12/05 00:08:11;;;;;;;29.80;14.97;;;;;;;4.12;100.00;102365.97;2097666;28;20647;-66
2023/12/05 00:09:12;;;;;;;34.87;15.87;;;;;;;3.61;100.00;102277.06;2095679;28;20187;-66
2023/12/05 00:10:12;;;;;;;27.53;14.47;;;;;;;4.11;100.00;102356.16;2091188;28;20267;-66
2023/12/05 00:11:13;;;;;;;33.20;15.13;;;;;;;4.11;100.00;102356.94;2098698;28;20172;-66
2023/12/05 00:12:14;;;;;;;36.53;15.57;;;;;;;4.14;100.00;102360.94;2089166;28;20265;-66
2023/12/05 00:13:14;;;;;;;33.53;15.77;;;;;;;4.11;100.00;102356.94;2096373;28;20555;-66
2023/12/05 00:14:15;;;;;;;31.03;15.33;;;;;;;4.14;100.00;102355.44;2098206;28;20220;-66
2023/12/05 00:15:15;;;;;;;30.77;15.43;;;;;;;4.07;100.00;102345.09;2093646;28;20266;-66
2023/12/05 00:16:16;;;;;;;28.23;15.23;;;;;;;4.22;100.00;102374.53;2092680;28;20194;-66
2023/12/05 00:17:16;;;;;;;34.10;16.13;;;;;;;4.23;100.00;102361.59;2097401;28;20226;-66
2023/12/05 00:18:17;;;;;;;30.83;14.80;;;;;;;4.23;100.00;102373.38;2097514;28;20172;-66
2023/12/05 00:19:17;;;;;;;33.30;15.87;;;;;;;4.20;100.00;102379.56;2098572;28;20229;-66
2023/12/05 00:20:18;;;;;;;29.30;15.53;;;;;;;4.05;100.00;102350.09;2097976;28;20341;-66
2023/12/05 00:21:18;;;;;;;28.70;15.00;;;;;;;4.19;100.00;102366.19;2098336;28;20183;-66
2023/12/05 00:22:19;;;;;;;28.77;13.90;;;;;;;4.12;100.00;102368.72;2092654;28;20603;-66
2023/12/05 00:23:19;;;;;;;33.07;14.23;;;;;;;4.19;100.00;102377.97;2088714;28;20199;-66
2023/12/05 00:24:20;;;;;;;26.73;13.50;;;;;;;4.23;100.00;102378.06;2091995;28;20187;-66
2023/12/05 00:25:21;;;;;;;35.17;14.57;;;;;;;3.53;100.00;102266.22;2097667;28;20255;-66
2023/12/05 00:26:21;;;;;;;27.50;14.47;;;;;;;4.23;100.00;102369.81;2098583;28;20179;-66
2023/12/05 00:27:22;;;;;;;25.37;13.60;;;;;;;4.22;100.00;102370.97;2097222;28;20738;-66
2023/12/05 00:28:22;;;;;;;33.00;14.40;;;;;;;4.21;100.00;102372.91;2091515;28;20188;-66
2023/12/05 00:29:23;;;;;;;28.87;13.43;;;;;;;3.79;100.00;102308.56;2089879;28;20357;-66
2023/12/05 00:30:23;;;;;;;29.57;14.27;;;;;;;4.21;100.00;102364.69;2089997;28;20192;-66
2023/12/05 00:31:24;;;;;;;30.80;13.30;;;;;;;4.19;100.00;102372.47;2092505;28;20195;-66
2023/12/05 00:32:24;;;;;;;28.63;13.30;;;;;;;4.20;100.00;102374.06;2096420;28;20190;-66
2023/12/05 00:33:25;;;;;;;28.33;13.63;;;;;;;4.19;100.00;102377.16;2096892;28;20179;-66
2023/12/05 00:34:25;;;;;;;31.67;13.50;;;;;;;4.20;100.00;102376.03;2098098;28;20309;-66
2023/12/05 00:35:26;;;;;;;27.83;14.50;;;;;;;4.20;100.00;102365.06;2090253;28;20201;-66
2023/12/05 00:36:26;;;;;;;21.90;12.37;;;;;;;4.17;100.00;102379.47;2094863;28;20255;-66
2023/12/05 00:37:27;;;;;;;24.57;13.63;;;;;;;4.16;100.00;102373.16;2091684;28;20689;-66
2023/12/05 00:38:28;;;;;;;29.67;13.83;;;;;;;4.16;100.00;102364.16;2095649;28;20175;-66
2023/12/05 00:39:28;;;;;;;25.67;13.27;;;;;;;4.15;100.00;102357.84;2090872;28;20190;-66
2023/12/05 00:40:29;;;;;;;28.17;13.77;;;;;;;4.14;100.00;102364.47;2090050;28;20585;-66
2023/12/05 00:41:30;;;;;;;27.05;13.52;;;;;;;4.08;100.00;102352.16;2093626;28;20191;-66
2023/12/05 00:42:30;;;;;;;28.90;14.23;;;;;;;4.11;100.00;102359.69;2097129;28;20230;-66
2023/12/05 00:43:31;;;;;;;27.47;14.23;;;;;;;4.09;100.00;102351.00;2096162;28;20198;-66
2023/12/05 00:44:31;;;;;;;22.13;13.10;;;;;;;4.09;100.00;102350.19;2088444;28;20542;-66
2023/12/05 00:45:32;;;;;;;26.70;13.67;;;;;;;4.08;100.00;102354.91;2089696;28;20180;-66
2023/12/05 00:46:32;;;;;;;28.10;14.50;;;;;;;4.10;100.00;102349.06;2096675;28;20195;-66
2023/12/05 00:47:33;;;;;;;25.57;11.67;;;;;;;4.17;100.00;102352.00;2097932;28;20596;-66
2023/12/05 00:48:34;;;;;;;26.40;13.70;;;;;;;4.15;100.00;102344.13;2092719;28;20560;-66
2023/12/05 00:49:34;;;;;;;31.50;14.00;;;;;;;4.15;100.00;102340.59;2093985;28;20195;-66
2023/12/05 00:50:35;;;;;;;30.27;14.23;;;;;;;3.29;100.00;102193.06;2097964;28;20196;-66
2023/12/05 00:51:35;;;;;;;27.53;13.87;;;;;;;4.15;100.00;102333.16;2096238;28;20227;-66
2023/12/05 00:52:36;;;;;;;30.67;13.33;;;;;;;4.12;100.00;102331.13;2088811;28;20291;-66
2023/12/05 00:53:36;;;;;;;33.17;14.27;;;;;;;4.15;100.00;102322.19;2090104;28;20683;-66
2023/12/05 00:54:37;;;;;;;29.53;14.90;;;;;;;4.16;100.00;102329.25;2089648;28;20750;-66
2023/12/05 00:55:37;;;;;;;22.63;13.20;;;;;;;4.13;100.00;102321.72;2095195;28;20195;-66
2023/12/05 00:56:38;;;;;;;23.57;13.20;;;;;;;4.15;100.00;102324.13;2091839;28;20562;-66
2023/12/05 00:57:38;;;;;;;29.63;13.27;;;;;;;4.13;100.00;102324.47;2094079;28;20269;-66
2023/12/05 00:58:39;;;;;;;24.40;13.50;;;;;;;3.12;100.00;102151.44;2098149;28;20191;-66
2023/12/05 00:59:39;;;;;;;28.47;13.23;;;;;;;4.19;100.00;102311.28;2097911;28;20180;-66
2023/12/05 01:00:40;;;;;;;26.73;13.87;;;;;;;4.17;100.00;102308.91;2097736;28;20653;-66
2023/12/05 01:01:40;;;;;;;23.63;12.07;;;;;;;4.21;100.00;102295.28;2097831;28;20176;-66
2023/12/05 01:02:41;;;;;;;27.87;13.03;;;;;;;4.21;100.00;102295.28;2097155;28;20214;-66
2023/12/05 01:03:42;;;;;;;24.27;13.07;;;;;;;4.23;100.00;102298.47;2097714;28;20277;-66
2023/12/05 01:04:42;;;;;;;27.13;13.23;;;;;;;4.23;100.00;102295.72;2097645;28;20256;-66
2023/12/05 01:05:43;;;;;;;22.70;12.03;;;;;;;4.27;100.00;102293.91;2096840;28;20192;-66
2023/12/05 01:06:43;;;;;;;24.63;12.20;;;;;;;4.30;100.00;102290.44;2097201;28;20339;-66
2023/12/05 01:07:44;;;;;;;21.13;11.37;;;;;;;4.32;100.00;102290.91;2096234;28;20175;-66
2023/12/05 01:08:44;;;;;;;22.30;11.63;;;;;;;4.35;100.00;102291.00;2088548;28;20179;-66
2023/12/05 01:09:45;;;;;;;17.83;10.77;;;;;;;3.54;100.00;102153.50;2098356;28;20248;-66
2023/12/05 01:10:45;;;;;;;19.03;10.07;;;;;;;4.32;100.00;102285.41;2097600;28;20587;-66
2023/12/05 01:11:46;;;;;;;18.87;9.83;;;;;;;4.40;100.00;102300.91;2098156;28;20182;-66
2023/12/05 01:12:46;;;;;;;18.30;10.30;;;;;;;4.37;100.00;102298.88;2097241;28;20190;-66
2023/12/05 01:13:47;;;;;;;19.63;10.20;;;;;;;4.35;100.00;102306.66;2097603;28;20253;-66
2023/12/05 01:14:47;;;;;;;17.50;9.10;;;;;;;4.35;100.00;102301.97;2095841;28;20167;-66
2023/12/05 01:15:48;;;;;;;18.60;9.90;;;;;;;4.37;100.00;102321.63;2088993;28;20622;-66
2023/12/05 01:16:48;;;;;;;18.13;9.23;;;;;;;4.37;100.00;102296.91;2096914;28;20316;-66
2023/12/05 01:17:49;;;;;;;18.40;9.50;;;;;;;4.37;100.00;102294.19;2090302;28;20225;-66
2023/12/05 01:18:49;;;;;;;20.27;10.17;;;;;;;4.38;100.00;102304.03;2089440;28;20204;-66
2023/12/05 01:19:50;;;;;;;18.53;10.50;;;;;;;4.42;100.00;102306.88;2094789;28;20180;-66
2023/12/05 01:20:50;;;;;;;18.10;9.53;;;;;;;4.37;100.00;102287.91;2097094;28;20194;-66
2023/12/05 01:21:51;;;;;;;18.73;9.13;;;;;;;4.40;100.00;102284.44;2097410;28;20181;-66
2023/12/05 01:22:51;;;;;;;18.53;9.23;;;;;;;4.40;100.00;102281.69;2095162;28;20276;-66
2023/12/05 01:23:52;;;;;;;16.70;9.53;;;;;;;4.41;100.00;102288.81;2089886;28;20186;-66
2023/12/05 01:24:54;;;;;;;17.20;8.70;;;;;;;4.47;100.00;102282.69;2097584;28;20199;-66
2023/12/05 01:25:55;;;;;;;17.95;9.85;;;;;;;4.06;100.00;102221.97;2096982;28;20194;-66
2023/12/05 01:26:55;;;;;;;18.17;9.70;;;;;;;4.44;100.00;102286.16;2090629;28;20195;-67
2023/12/05 01:27:56;;;;;;;18.13;9.20;;;;;;;4.14;100.00;102238.28;2093876;28;20236;-66
2023/12/05 01:28:56;;;;;;;16.53;10.00;;;;;;;4.48;100.00;102283.50;2097354;28;20184;-66
2023/12/05 01:29:57;;;;;;;18.30;9.53;;;;;;;4.42;100.00;102262.94;2095458;28;20183;-66
2023/12/05 01:30:57;;;;;;;20.57;9.70;;;;;;;4.51;100.00;102274.56;2089839;28;20192;-66
2023/12/05 01:31:58;;;;;;;17.13;9.53;;;;;;;4.48;100.00;102281.56;2098126;28;20185;-66
2023/12/05 01:32:58;;;;;;;17.93;8.77;;;;;;;4.52;100.00;102276.16;2096364;28;20578;-66
2023/12/05 01:33:59;;;;;;;15.23;8.67;;;;;;;4.55;100.00;102281.75;2097757;28;20667;-66
2023/12/05 01:34:59;;;;;;;18.17;9.57;;;;;;;4.43;100.00;102248.88;2097832;28;20198;-66
2023/12/05 01:36:00;;;;;;;15.77;8.60;;;;;;;4.64;100.00;102276.91;2097096;28;20623;-66
2023/12/05 01:37:00;;;;;;;16.27;8.90;;;;;;;4.54;100.00;102268.38;2096716;28;20214;-66
2023/12/05 01:38:01;;;;;;;17.40;9.33;;;;;;;4.54;100.00;102255.44;2096570;28;20623;-66
2023/12/05 01:39:01;;;;;;;15.97;8.17;;;;;;;4.66;100.00;102276.53;2098034;28;20216;-66
2023/12/05 01:40:02;;;;;;;18.47;9.57;;;;;;;4.63;100.00;102272.56;2096980;28;20199;-66
2023/12/05 01:41:03;;;;;;;16.15;9.30;;;;;;;4.57;100.00;102257.47;2096632;28;20210;-66
2023/12/05 01:42:04;;;;;;;17.43;9.97;;;;;;;4.67;100.00;102261.66;2097111;28;20281;-66
2023/12/05 01:43:04;;;;;;;15.73;8.40;;;;;;;4.71;100.00;102263.34;2092532;28;20195;-66
2023/12/05 01:44:05;;;;;;;15.57;8.90;;;;;;;4.55;100.00;102229.56;2092021;28;20509;-66
2023/12/05 01:45:08;;;;;;;15.73;9.37;;;;;;;4.67;100.00;102250.69;2097409;28;20186;-66
2023/12/05 01:46:09;;;;;;;16.42;9.85;;;;;;;4.60;100.00;102256.78;2096511;28;20182;-66
2023/12/05 01:47:11;;;;;;;16.35;9.57;;;;;;;4.77;100.00;102263.88;2097459;28;20696;-66
2023/12/05 01:48:12;;;;;;;18.48;9.13;;;;;;;4.49;100.00;102225.50;2088565;28;20200;-66
2023/12/05 01:49:13;;;;;;;14.47;8.30;;;;;;;4.75;100.00;102258.75;2096177;28;20203;-66
2023/12/05 01:50:20;;;;;;;15.00;8.83;;;;;;;4.55;100.00;102235.06;2092089;28;20235;-66
2023/12/05 01:51:20;;;;;;;18.60;9.65;;;;;;;4.71;100.00;102254.28;2088463;28;20228;-66
2023/12/05 01:52:21;;;;;;;15.73;8.33;;;;;;;4.68;100.00;102249.53;2088054;28;20230;-66
2023/12/05 01:53:22;;;;;;;16.27;8.77;;;;;;;4.69;100.00;102256.59;2091813;28;20557;-67
2023/12/05 01:54:23;;;;;;;17.65;9.23;;;;;;;4.73;100.00;102255.53;2097608;28;20245;-66
2023/12/05 01:55:26;;;;;;;17.17;8.67;;;;;;;4.71;100.00;102243.31;2096585;28;20229;-66
2023/12/05 01:56:27;;;;;;;17.73;9.70;;;;;;;4.75;100.00;102245.00;2089353;28;20245;-66
2023/12/05 01:57:28;;;;;;;16.13;8.73;;;;;;;4.74;100.00;102235.19;2096388;28;20260;-66
2023/12/05 01:58:31;;;;;;;17.42;8.75;;;;;;;4.76;100.00;102241.09;2096971;28;20199;-66
2023/12/05 01:59:32;;;;;;;18.48;8.45;;;;;;;4.77;100.00;102244.66;2091453;28;20199;-66
2023/12/05 02:00:33;;;;;;;14.90;8.77;;;;;;;4.80;100.00;102254.91;2092603;28;20274;-66
2023/12/05 02:01:34;;;;;;;19.90;8.27;;;;;;;4.75;100.00;102247.75;2097266;28;20286;-66
2023/12/05 02:02:35;;;;;;;17.63;9.25;;;;;;;3.79;100.00;102104.84;2096697;28;20186;-66
2023/12/05 02:03:36;;;;;;;15.23;8.60;;;;;;;4.63;100.00;102236.88;2096825;28;20186;-66
2023/12/05 02:04:38;;;;;;;15.45;8.63;;;;;;;4.76;100.00;102248.53;2089537;28;20181;-66
2023/12/05 02:05:39;;;;;;;15.48;8.30;;;;;;;3.89;100.00;102109.78;2096340;28;20590;-66
2023/12/05 02:06:39;;;;;;;14.50;8.20;;;;;;;3.82;100.00;102098.66;2096774;28;20202;-66
2023/12/05 02:07:40;;;;;;;14.73;7.73;;;;;;;4.13;100.00;102151.63;2097183;28;20194;-66
2023/12/05 02:08:42;;;;;;;20.05;8.60;;;;;;;4.78;100.00;102238.78;2097361;28;20194;-66
2023/12/05 02:09:44;;;;;;;14.30;7.88;;;;;;;4.59;100.00;102210.44;2094161;28;20767;-66
2023/12/05 02:10:45;;;;;;;14.63;7.53;;;;;;;4.78;100.00;102244.28;2090489;28;20175;-66
2023/12/05 02:11:46;;;;;;;13.33;7.70;;;;;;;4.61;100.00;102216.41;2096823;28;20225;-66
2023/12/05 02:12:47;;;;;;;16.88;8.57;;;;;;;4.75;100.00;102245.00;2088262;28;20241;-66
2023/12/05 02:13:48;;;;;;;14.47;8.47;;;;;;;4.71;100.00;102243.31;2096398;28;20273;-66
2023/12/05 02:14:49;;;;;;;11.18;7.22;;;;;;;4.65;100.00;102245.53;2090994;28;20204;-66
2023/12/05 02:15:58;;;;;;;13.83;8.27;;;;;;;4.69;100.00;102251.09;2088628;28;20250;-66
2023/12/05 02:17:09;;;;;;;14.32;8.02;;;;;;;4.51;100.00;102230.66;2093227;28;20207;-66
2023/12/05 02:18:26;;;;;;;16.92;8.15;;;;;;;4.62;100.00;102256.44;2097480;28;20194;-66
2023/12/05 02:19:40;;;;;;;15.77;8.73;;;;;;;4.62;100.00;102243.47;2091416;28;20199;-66
2023/12/05 02:20:55;;;;;;;16.83;8.20;;;;;;;4.10;100.00;102179.75;2094389;28;20605;-66
2023/12/05 02:22:00;;;;;;;14.77;8.43;;;;;;;4.68;100.00;102244.03;2096884;28;20606;-66
2023/12/05 02:23:00;;;;;;;14.18;7.88;;;;;;;4.70;100.00;102245.28;2096411;28;20613;-66
2023/12/05 02:24:25;;;;;;;18.10;7.40;;;;;;;4.69;100.00;102249.19;2097305;28;20198;-66
2023/12/05 02:25:37;;;;;;;18.48;10.07;;;;;;;4.65;100.00;102236.47;2096781;28;20183;-66
2023/12/05 02:26:58;;;;;;;15.65;7.80;;;;;;;4.62;100.00;102232.50;2089317;28;20270;-66
2023/12/05 02:28:01;;;;;;;11.60;7.22;;;;;;;4.64;100.00;102243.94;2072954;28;20205;-66
2023/12/05 02:29:02;;;;;;;12.00;7.60;;;;;;;3.84;100.00;102116.34;2080296;28;20662;-66
2023/12/05 02:30:02;;;;;;;15.45;8.02;;;;;;;4.57;100.00;102234.72;2080723;28;20204;-66
2023/12/05 02:31:04;;;;;;;16.57;8.77;;;;;;;4.54;100.00;102235.41;2079912;28;20236;-66
2023/12/05 02:32:05;;;;;;;15.13;8.35;;;;;;;4.38;100.00;102221.69;2080914;28;20204;-66
2023/12/05 02:33:05;;;;;;;13.87;7.40;;;;;;;4.49;100.00;102239.22;2080076;28;20212;-66
2023/12/05 02:34:06;;;;;;;15.57;8.43;;;;;;;4.47;100.00;102243.47;2080712;28;20184;-66
2023/12/05 02:35:07;;;;;;;15.03;7.50;;;;;;;4.51;100.00;102236.91;2080361;28;20785;-66
2023/12/05 02:36:19;;;;;;;16.05;8.55;;;;;;;4.48;100.00;102239.56;2080655;28;20181;-66
2023/12/05 02:37:43;;;;;;;14.43;8.07;;;;;;;4.16;100.00;102189.31;2080373;28;20200;-66
2023/12/05 02:39:12;;;;;;;13.95;7.78;;;;;;;4.52;100.00;102244.00;2073682;28;20176;-66
2023/12/05 02:40:35;;;;;;;16.60;9.02;;;;;;;4.50;100.00;102240.81;2055101;28;20210;-66
2023/12/05 02:41:37;;;;;;;17.35;9.70;;;;;;;4.50;100.00;102234.50;2079244;28;20581;-66
2023/12/05 02:42:39;;;;;;;19.95;8.70;;;;;;;4.53;100.00;102233.81;2075523;28;20632;-66
2023/12/05 02:43:46;;;;;;;13.90;8.23;;;;;;;4.49;100.00;102231.00;2075451;28;20203;-66
2023/12/05 02:44:50;;;;;;;13.07;7.22;;;;;;;4.52;100.00;102226.75;2080696;28;20204;-66
2023/12/05 02:45:54;;;;;;;14.35;8.73;;;;;;;4.52;100.00;102234.97;2079886;28;20196;-66
2023/12/05 02:46:55;;;;;;;13.75;7.20;;;;;;;4.48;100.00;102220.34;2079925;28;21039;-66
2023/12/05 02:47:58;;;;;;;13.02;7.78;;;;;;;4.36;100.00;102196.50;2079877;28;20206;-66
2023/12/05 02:48:59;;;;;;;13.23;7.60;;;;;;;4.48;100.00;102217.63;2080277;28;20170;-66
2023/12/05 02:49:59;;;;;;;14.93;7.68;;;;;;;4.49;100.00;102230.19;2080124;28;20639;-66
2023/12/05 02:51:00;;;;;;;16.23;7.83;;;;;;;4.50;100.00;102221.59;2079905;28;20211;-66
2023/12/05 02:52:01;;;;;;;15.63;8.63;;;;;;;4.32;100.00;102190.13;2075166;28;20263;-66
2023/12/05 02:53:01;;;;;;;15.50;9.23;;;;;;;4.55;100.00;102226.84;2075012;28;20206;-66
2023/12/05 02:54:06;;;;;;;14.20;7.70;;;;;;;4.56;100.00;102228.41;2080399;28;20280;-66
2023/12/05 02:55:06;;;;;;;18.33;8.55;;;;;;;4.08;100.00;102156.56;2080690;28;20184;-66
2023/12/05 02:56:07;;;;;;;14.10;8.33;;;;;;;3.89;100.00;102105.13;2079147;28;20728;-66
2023/12/05 02:57:08;;;;;;;13.67;7.70;;;;;;;4.56;100.00;102211.94;2080154;28;20709;-66
2023/12/05 02:58:09;;;;;;;14.27;8.10;;;;;;;4.56;100.00;102214.69;2079995;28;20200;-66
2023/12/05 02:59:09;;;;;;;14.50;7.87;;;;;;;4.11;100.00;102134.69;2080403;28;20734;-66
2023/12/05 03:00:11;;;;;;;14.27;7.40;;;;;;;4.60;100.00;102210.09;2080016;28;20446;-66
2023/12/05 03:01:11;;;;;;;14.98;8.65;;;;;;;4.60;100.00;102215.59;2079497;28;20246;-66
2023/12/05 03:02:12;;;;;;;13.63;7.47;;;;;;;4.60;100.00;102215.59;2080369;28;20247;-66
2023/12/05 03:03:12;;;;;;;13.23;7.37;;;;;;;4.51;100.00;102201.22;2078876;28;20482;-66
2023/12/05 03:04:13;;;;;;;13.53;7.63;;;;;;;4.65;100.00;102231.00;2080952;28;20185;-66
2023/12/05 03:05:13;;;;;;;14.30;7.77;;;;;;;4.18;100.00;102176.06;2080592;28;20239;-66
2023/12/05 03:06:14;;;;;;;12.97;7.23;;;;;;;4.67;100.00;102243.22;2079661;28;20200;-66
2023/12/05 03:07:14;;;;;;;13.40;7.50;;;;;;;4.70;100.00;102256.25;2079915;28;20689;-66
2023/12/05 03:08:15;;;;;;;14.53;7.73;;;;;;;4.69;100.00;102259.34;2080447;28;20207;-66
2023/12/05 03:09:15;;;;;;;13.63;7.93;;;;;;;4.67;100.00;102248.72;2080302;28;30114;-66
2023/12/05 03:10:16;;;;;;;14.57;7.80;;;;;;;4.64;100.00;102243.94;2079841;28;20211;-66
2023/12/05 03:11:16;;;;;;;12.57;7.77;;;;;;;4.62;100.00;102265.44;2080700;28;20188;-66
2023/12/05 03:12:17;;;;;;;14.50;6.97;;;;;;;4.56;100.00;102236.66;2080451;28;20195;-66
2023/12/05 03:13:17;;;;;;;11.60;7.73;;;;;;;4.51;100.00;102242.41;2079841;28;20191;-66
2023/12/05 03:14:18;;;;;;;12.27;7.40;;;;;;;4.52;100.00;102252.22;2079745;28;20208;-66
2023/12/05 03:15:18;;;;;;;12.60;7.00;;;;;;;4.52;100.00;102245.97;2079852;28;20263;-66
2023/12/05 03:16:19;;;;;;;15.47;8.27;;;;;;;4.53;100.00;102239.31;2079863;28;20188;-66
2023/12/05 03:17:19;;;;;;;16.47;8.87;;;;;;;4.52;100.00;102252.22;2079643;28;20211;-66
2023/12/05 03:18:20;;;;;;;11.70;7.00;;;;;;;4.29;100.00;102201.84;2080159;28;20192;-66
2023/12/05 03:19:20;;;;;;;14.43;7.67;;;;;;;4.54;100.00;102232.66;2080909;28;20184;-66
2023/12/05 03:20:21;;;;;;;13.67;6.97;;;;;;;4.54;100.00;102228.00;2080391;28;20691;-66
2023/12/05 03:21:21;;;;;;;16.70;7.90;;;;;;;4.55;100.00;102224.09;2080427;28;20196;-66
2023/12/05 03:22:22;;;;;;;15.37;8.10;;;;;;;4.55;100.00;102226.84;2079817;28;20223;-66
2023/12/05 03:23:22;;;;;;;12.00;6.90;;;;;;;4.28;100.00;102180.22;2079687;28;20278;-66
2023/12/05 03:24:23;;;;;;;15.90;8.40;;;;;;;4.51;100.00;102223.19;2077960;28;20188;-66
2023/12/05 03:25:23;;;;;;;16.07;8.07;;;;;;;4.51;100.00;102225.16;2087316;28;20175;-66
2023/12/05 03:26:24;;;;;;;15.43;7.30;;;;;;;4.61;100.00;102228.16;2072314;28;20224;-66
2023/12/05 03:27:24;;;;;;;12.40;7.20;;;;;;;4.61;100.00;102224.63;2088156;28;20304;-66
2023/12/05 03:28:25;;;;;;;14.27;7.27;;;;;;;4.60;100.00;102221.06;2096795;28;20280;-66
2023/12/05 03:29:25;;;;;;;14.97;6.87;;;;;;;4.58;100.00;102212.41;2091816;28;20275;-66
2023/12/05 03:30:26;;;;;;;14.37;8.40;;;;;;;4.58;100.00;102217.09;2092507;28;20191;-66
2023/12/05 03:31:26;;;;;;;13.73;7.53;;;;;;;4.57;100.00;102210.78;2096138;28;20226;-66
2023/12/05 03:32:27;;;;;;;12.80;7.67;;;;;;;4.56;100.00;102205.69;2096001;28;20237;-66
2023/12/05 03:33:27;;;;;;;12.63;7.30;;;;;;;4.57;100.00;102204.53;2097229;28;20617;-66
2023/12/05 03:34:27;;;;;;;13.60;7.60;;;;;;;4.55;100.00;102209.56;2096151;28;20676;-66
2023/12/05 03:35:28;;;;;;;14.60;7.40;;;;;;;4.52;100.00;102193.81;2088794;28;20227;-66
2023/12/05 03:36:28;;;;;;;13.73;7.53;;;;;;;3.78;100.00;102081.28;2093793;28;20257;-66
2023/12/05 03:37:29;;;;;;;14.60;8.20;;;;;;;4.51;100.00;102195.75;2096390;28;20226;-66
2023/12/05 03:38:29;;;;;;;12.50;7.57;;;;;;;4.50;100.00;102183.16;2093761;28;20210;-66
2023/12/05 03:39:30;;;;;;;13.10;7.60;;;;;;;4.49;100.00;102184.31;2089722;28;20266;-66
2023/12/05 03:40:30;;;;;;;15.90;7.77;;;;;;;4.48;100.00;102182.72;2096470;28;20184;-66
2023/12/05 03:41:31;;;;;;;18.57;8.07;;;;;;;4.40;100.00;102172.72;2096984;28;20179;-66
2023/12/05 03:42:31;;;;;;;16.40;7.80;;;;;;;4.03;100.00;102113.72;2089119;28;20279;-66
2023/12/05 03:43:32;;;;;;;16.13;9.03;;;;;;;4.47;100.00;102185.81;2094289;28;20378;-66
2023/12/05 03:44:32;;;;;;;21.03;8.40;;;;;;;4.07;100.00;102119.31;2096570;28;20241;-66
2023/12/05 03:45:33;;;;;;;11.97;7.37;;;;;;;4.56;100.00;102189.97;2092176;28;20196;-66
2023/12/05 03:46:33;;;;;;;11.80;6.93;;;;;;;4.61;100.00;102197.19;2087932;28;20230;-66
2023/12/05 03:47:34;;;;;;;15.93;7.70;;;;;;;4.58;100.00;102204.16;2088199;28;20176;-66
2023/12/05 03:48:36;;;;;;;15.30;8.17;;;;;;;4.04;100.00;102109.84;2088830;28;20186;-66
2023/12/05 03:49:37;;;;;;;13.82;7.68;;;;;;;3.61;100.00;102051.47;2096561;28;20195;-66
2023/12/05 03:50:37;;;;;;;16.40;8.00;;;;;;;4.60;100.00;102201.03;2096815;28;20199;-66
2023/12/05 03:51:38;;;;;;;16.27;7.77;;;;;;;4.59;100.00;102196.72;2096621;28;20216;-66
2023/12/05 03:52:38;;;;;;;14.67;8.40;;;;;;;4.57;100.00;102190.78;2095836;28;20252;-66
2023/12/05 03:53:39;;;;;;;14.80;7.17;;;;;;;4.53;100.00;102193.44;2096567;28;20253;-66
2023/12/05 03:54:39;;;;;;;13.43;7.30;;;;;;;4.53;100.00;102198.94;2096677;28;20649;-66
2023/12/05 03:55:40;;;;;;;16.70;7.83;;;;;;;4.55;100.00;102199.38;2095769;28;20966;-66
2023/12/05 03:56:41;;;;;;;13.77;8.10;;;;;;;4.23;100.00;102145.63;2095823;28;20187;-66
2023/12/05 03:57:41;;;;;;;15.52;8.18;;;;;;;4.58;100.00;102201.44;2096587;28;20581;-66
2023/12/05 03:58:42;;;;;;;13.00;7.00;;;;;;;4.63;100.00;102203.91;2096582;28;20200;-66
2023/12/05 03:59:44;;;;;;;10.97;6.63;;;;;;;4.58;100.00;102209.66;2096659;28;20672;-66
2023/12/05 04:00:45;;;;;;;13.25;7.47;;;;;;;4.55;100.00;102206.81;2096571;28;20567;-66
2023/12/05 04:01:46;;;;;;;11.93;7.00;;;;;;;4.47;100.00;102205.03;2096557;28;20198;-66
2023/12/05 04:02:47;;;;;;;18.20;7.25;;;;;;;4.48;100.00;102204.69;2095504;28;20600;-66
2023/12/05 04:03:47;;;;;;;13.17;7.27;;;;;;;4.48;100.00;102206.63;2097073;28;20178;-66
2023/12/05 04:04:48;;;;;;;10.93;6.40;;;;;;;4.52;100.00;102207.53;2096779;28;20192;-66
2023/12/05 04:05:48;;;;;;;11.40;7.27;;;;;;;4.49;100.00;102191.75;2089513;28;20208;-66
2023/12/05 04:06:49;;;;;;;14.57;7.90;;;;;;;4.47;100.00;102183.09;2092556;28;20201;-66
2023/12/05 04:07:49;;;;;;;15.07;8.17;;;;;;;4.48;100.00;102179.19;2095608;28;20227;-66
2023/12/05 04:08:50;;;;;;;14.30;7.63;;;;;;;4.10;100.00;102124.88;2094046;28;20180;-66
2023/12/05 04:09:51;;;;;;;13.13;7.70;;;;;;;4.51;100.00;102195.75;2089624;28;20223;-66
2023/12/05 04:10:51;;;;;;;14.20;7.77;;;;;;;4.50;100.00;102196.88;2096428;28;20691;-66
2023/12/05 04:11:52;;;;;;;16.37;7.60;;;;;;;4.44;100.00;102198.31;2088797;28;20203;-66
2023/12/05 04:12:52;;;;;;;13.50;6.73;;;;;;;4.51;100.00;102201.22;2094395;28;20184;-66
2023/12/05 04:13:53;;;;;;;15.83;7.63;;;;;;;4.52;100.00;102200.06;2096418;28;20264;-66
2023/12/05 04:14:53;;;;;;;14.00;7.93;;;;;;;4.53;100.00;102189.91;2096006;28;20185;-66
2023/12/05 04:15:54;;;;;;;17.03;8.27;;;;;;;4.48;100.00;102181.94;2095573;28;20184;-66
2023/12/05 04:16:54;;;;;;;11.50;6.63;;;;;;;4.51;100.00;102178.47;2095554;28;20297;-66
2023/12/05 04:17:55;;;;;;;13.10;7.40;;;;;;;4.50;100.00;102174.13;2095388;28;20172;-66
2023/12/05 04:18:55;;;;;;;14.33;7.40;;;;;;;4.48;100.00;102179.19;2088745;28;20654;-66
2023/12/05 04:19:56;;;;;;;14.13;7.63;;;;;;;4.42;100.00;102178.63;2088489;28;20361;-66
2023/12/05 04:20:56;;;;;;;12.00;6.63;;;;;;;4.36;100.00;102176.53;2094150;28;20260;-66
2023/12/05 04:21:57;;;;;;;14.27;7.83;;;;;;;4.40;100.00;102186.44;2095839;28;20195;-66
2023/12/05 04:22:57;;;;;;;12.23;7.23;;;;;;;3.51;100.00;102046.50;2092177;28;20207;-66
2023/12/05 04:23:58;;;;;;;16.87;7.67;;;;;;;4.40;100.00;102178.19;2090160;28;20186;-66
2023/12/05 04:24:58;;;;;;;12.20;7.27;;;;;;;4.36;100.00;102182.78;2095683;28;20183;-66
2023/12/05 04:25:59;;;;;;;13.03;7.80;;;;;;;4.43;100.00;102184.94;2095970;28;20641;-66
2023/12/05 04:26:59;;;;;;;12.83;7.03;;;;;;;4.46;100.00;102186.97;2095192;28;20582;-66
2023/12/05 04:28:00;;;;;;;12.47;6.97;;;;;;;3.71;100.00;102070.16;2090885;28;20192;-66
2023/12/05 04:29:00;;;;;;;12.40;7.37;;;;;;;4.41;100.00;102173.53;2096124;28;20670;-66
2023/12/05 04:30:01;;;;;;;14.00;7.93;;;;;;;4.18;100.00;102137.66;2096409;28;20689;-66
2023/12/05 04:31:01;;;;;;;13.80;8.00;;;;;;;4.09;100.00;102117.00;2094121;28;20654;-66
2023/12/05 04:32:02;;;;;;;12.60;6.97;;;;;;;4.50;100.00;102165.88;2088538;28;20180;-66
2023/12/05 04:33:04;;;;;;;15.70;7.88;;;;;;;4.51;100.00;102167.50;2094873;28;20205;-66
2023/12/05 04:34:04;;;;;;;12.43;7.10;;;;;;;4.55;100.00;102160.94;2096996;28;20209;-66
2023/12/05 04:35:05;;;;;;;14.67;7.67;;;;;;;4.55;100.00;102168.38;2089573;28;20193;-66
2023/12/05 04:36:07;;;;;;;13.85;7.78;;;;;;;4.52;100.00;102158.88;2093115;28;20633;-66
2023/12/05 04:37:08;;;;;;;14.88;8.15;;;;;;;4.11;100.00;102092.75;2091096;28;20212;-66
2023/12/05 04:38:08;;;;;;;14.55;7.45;;;;;;;4.57;100.00;102146.88;2088097;28;20192;-66
2023/12/05 04:39:09;;;;;;;11.77;7.17;;;;;;;3.93;100.00;102042.13;2089345;28;20242;-66
2023/12/05 04:40:28;;;;;;;13.50;7.03;;;;;;;4.64;100.00;102141.53;2095402;28;20180;-66
2023/12/05 04:41:33;;;;;;;13.52;6.90;;;;;;;4.59;100.00;102128.06;2095710;28;20661;-66